»·PEaware :: N973SE F70-KAVX

N973SE :: F70-KAVX

FLIGHT INFORMATION

Flight Status: Arrived
Operator: Privately registered:
United States
More flights under this callsign
Pilot: Stig E. (4778)
Aircraft: CESSNA 310
(C310)
More flights by this aircraft type
Origin: F70 French Valley
United States
Destination: KAVX Catalina
United States
More flights between these airports :: More routes between these airports
Route: KSNA PADDR
File this flight plan on PilotEdge
Remarks:
Altitude:
(Current/Filed)
5,500ft
Speed:
(Current/Filed)
170kts
Departed: 01-Jan-19 01:13 AM
Arrived: 01-Jan-19 01:55 AM
Distance/Time
Traveled:
65nm/0:42
Distance/Time
To Go:
Arrived

Flight Plot

Page will automatically refresh every two minutes.

Flight plan parsing failed; only flown route is shown


Map Options




Map Legend


Flown Route
Filed Route
Departure Airport
Arrival Airport
Navaid (VOR, NDB)
Fix

Horizontal Profiles

Position Reports

Time Latitude Longitude Heading Altitude Ground
Speed
01-Jan-19 01:01 33.574648 -117.129472 194 1353ft 0kts
01-Jan-19 01:02 33.574648 -117.129472 194 1353ft 0kts
01-Jan-19 01:03 33.573290 -117.129530 192 1353ft 13kts
01-Jan-19 01:04 33.568531 -117.130746 195 1353ft 20kts
01-Jan-19 01:05 33.566390 -117.131705 124 1353ft 0kts
01-Jan-19 01:06 33.566390 -117.131705 124 1353ft 0kts
01-Jan-19 01:07 33.566390 -117.131705 124 1353ft 0kts
01-Jan-19 01:08 33.566390 -117.131705 124 1353ft 0kts
01-Jan-19 01:09 33.566390 -117.131705 124 1353ft 0kts
01-Jan-19 01:10 33.566390 -117.131705 124 1353ft 0kts
01-Jan-19 01:11 33.566293 -117.130665 68 1353ft 8kts
01-Jan-19 01:12 33.587750 -117.126337 355 2250ft 112kts
01-Jan-19 01:13 33.621920 -117.123862 354 3568ft 138kts
01-Jan-19 01:14 33.636327 -117.166314 281 4595ft 154kts
01-Jan-19 01:15 33.634100 -117.217245 251 5518ft 166kts
01-Jan-19 01:16 33.616204 -117.274584 251 5525ft 193kts
01-Jan-19 01:17 33.604958 -117.337221 275 5520ft 194kts
01-Jan-19 01:18 33.612303 -117.401371 281 5520ft 194kts
01-Jan-19 01:19 33.621013 -117.464849 282 5521ft 189kts
01-Jan-19 01:20 33.629530 -117.526842 283 5527ft 188kts
01-Jan-19 01:21 33.638021 -117.588879 283 5534ft 189kts
01-Jan-19 01:22 33.646566 -117.651502 283 5531ft 191kts
01-Jan-19 01:23 33.655111 -117.714127 283 5532ft 191kts
01-Jan-19 01:24 33.663728 -117.777000 283 5525ft 187kts
01-Jan-19 01:25 33.671493 -117.834614 284 5528ft 167kts
01-Jan-19 01:26 33.671219 -117.889557 261 5525ft 169kts
01-Jan-19 01:27 33.660204 -117.944355 260 5525ft 169kts
01-Jan-19 01:28 33.649165 -117.999360 258 5524ft 170kts
01-Jan-19 01:29 33.637977 -118.054556 260 5503ft 170kts
01-Jan-19 01:31 33.626826 -118.109767 262 5518ft 170kts
01-Jan-19 01:32 33.615947 -118.164058 263 5420ft 160kts
01-Jan-19 01:33 33.605239 -118.216198 260 4951ft 162kts
01-Jan-19 01:34 33.594607 -118.269015 260 4425ft 167kts
01-Jan-19 01:35 33.559910 -118.305490 208 3729ft 174kts
01-Jan-19 01:36 33.547529 -118.314332 208 3530ft 175kts
01-Jan-19 01:37 33.547529 -118.314332 208 3530ft 175kts
01-Jan-19 01:38 33.547529 -118.314332 208 3530ft 175kts
01-Jan-19 01:39 33.547529 -118.314332 208 3530ft 175kts
01-Jan-19 01:40 33.547529 -118.314332 208 3530ft 175kts
01-Jan-19 01:41 33.547529 -118.314332 208 3530ft 175kts
01-Jan-19 01:42 33.547529 -118.314332 208 3530ft 175kts
01-Jan-19 01:43 33.547529 -118.314332 208 3530ft 175kts
01-Jan-19 01:44 33.542480 -118.317917 208 3458ft 174kts
01-Jan-19 01:45 33.542480 -118.317917 208 3458ft 174kts
01-Jan-19 01:46 33.542480 -118.317917 208 3458ft 174kts
01-Jan-19 01:47 33.542480 -118.317917 208 3458ft 174kts
01-Jan-19 01:48 33.542480 -118.317917 208 3458ft 174kts
01-Jan-19 01:49 33.542480 -118.317917 208 3458ft 174kts
01-Jan-19 01:49 33.542480 -118.317917 208 3458ft 174kts
01-Jan-19 01:50 33.518846 -118.334715 206 3056ft 174kts
01-Jan-19 01:52 33.471617 -118.368237 206 2605ft 155kts
01-Jan-19 01:52 33.443430 -118.388753 206 2599ft 129kts
01-Jan-19 01:53 33.412068 -118.403593 228 1764ft 139kts
01-Jan-19 01:54 33.402574 -118.419136 56 1611ft 3kts
01-Jan-19 01:55 33.403503 -118.415385 88 1573ft 18kts
01-Jan-19 01:56 33.403706 -118.414915 356 1571ft 0kts

Navigation Log

Ident Type
Flight plan parsing failed, navigation log unavailable